Terminal Aerodrome Forecast
Issued by NWS

Home | Current Version | Previous Version | Text Only | Print | Product List | Glossary On
Versions: 1 2 3 4 5 6 7 8 9 10 11 12 13 14 15 16 17 18 19 20
000
FTUS43 KMPX 241700
TAFRNH
TAF
KRNH 241728Z 2418/2518 17008KT P6SM SCT015 BKN025
     FM242200 21008KT P6SM SCT025
     FM250300 26006KT P6SM SCT250
     FM251500 30012G19KT P6SM FEW250=

USA.gov is the U.S. government's official web portal to all federal, state and local government web resources and services.